createdAt,value
2017-01-03T00:00:57.960Z,1021.28
2017-01-03T00:02:06.669Z,1021.25
2017-01-03T00:03:15.751Z,1021.27
2017-01-03T00:04:25.261Z,1021.23
2017-01-03T00:05:35.170Z,1021.21
2017-01-03T00:06:43.945Z,1021.22
2017-01-03T00:07:53.462Z,1021.22
2017-01-03T00:09:02.548Z,1021.18
2017-01-03T00:10:11.292Z,1021.19
2017-01-03T00:11:20.423Z,1021.2
2017-01-03T00:12:29.127Z,1021.19
2017-01-03T00:13:37.817Z,1021.16
2017-01-03T00:14:46.889Z,1021.2
2017-01-03T00:15:56.382Z,1021.19
2017-01-03T00:17:05.783Z,1021.16
2017-01-03T00:18:14.870Z,1021.17
2017-01-03T00:19:23.948Z,1021.16
2017-01-03T00:20:32.668Z,1021.13
2017-01-03T00:21:42.137Z,1021.15
2017-01-03T00:22:51.083Z,1021.19
2017-01-03T00:24:00.280Z,1021.2
2017-01-03T00:25:09.787Z,1021.17
2017-01-03T00:26:18.873Z,1021.18
2017-01-03T00:27:28.444Z,1021.17
2017-01-03T00:28:37.357Z,1021.16
2017-01-03T00:29:46.505Z,1021.17
2017-01-03T00:30:55.267Z,1021.19
2017-01-03T00:32:04.869Z,1021.15
2017-01-03T00:33:14.039Z,1021.13
2017-01-03T00:34:23.192Z,1021.14
2017-01-03T00:35:32.720Z,1021.12
2017-01-03T00:36:41.467Z,1021.12
2017-01-03T00:37:51.026Z,1021.04
2017-01-03T00:39:00.120Z,1021.07
2017-01-03T00:40:09.632Z,1021.07
2017-01-03T00:41:18.736Z,1021.04
2017-01-03T00:42:27.816Z,1021.04
2017-01-03T00:43:36.986Z,1021
2017-01-03T00:44:46.155Z,1021.05
2017-01-03T00:45:55.382Z,1021.02
2017-01-03T00:47:04.942Z,1021.02
2017-01-03T00:48:14.515Z,1021.03
2017-01-03T00:49:23.600Z,1021.03
2017-01-03T00:50:32.802Z,1021.06
2017-01-03T00:51:42.223Z,1021.02
2017-01-03T00:52:50.956Z,1021.08
2017-01-03T00:54:00.516Z,1021.06
2017-01-03T00:55:09.201Z,1021.1
2017-01-03T00:56:18.709Z,1021.08
2017-01-03T00:57:28.128Z,1021.12
2017-01-03T00:58:37.319Z,1021.12
2017-01-03T00:59:46.393Z,1021.09
2017-01-03T01:00:55.477Z,1021.09
2017-01-03T01:02:04.175Z,1021.11
2017-01-03T01:03:13.269Z,1021.12
2017-01-03T01:04:22.348Z,1021.12
2017-01-03T01:05:31.032Z,1021.11
2017-01-03T01:06:40.125Z,1021.11
2017-01-03T01:07:48.814Z,1021.15
2017-01-03T01:08:58.634Z,1021.21
2017-01-03T01:10:07.725Z,1021.18
2017-01-03T01:11:16.813Z,1021.17
2017-01-03T01:12:25.511Z,1021.18
2017-01-03T01:13:34.990Z,1021.2
2017-01-03T01:14:44.633Z,1021.17
2017-01-03T01:15:53.370Z,1021.12
2017-01-03T01:17:02.860Z,1021.16
2017-01-03T01:18:11.990Z,1021.16
2017-01-03T01:19:21.467Z,1021.2
2017-01-03T01:20:31.313Z,1021.17
2017-01-03T01:21:40.389Z,1021.18
2017-01-03T01:22:50.253Z,1021.14
2017-01-03T01:23:58.969Z,1021.23
2017-01-03T01:25:08.062Z,1021.18
2017-01-03T01:26:17.142Z,1021.18
2017-01-03T01:27:26.239Z,1021.23
2017-01-03T01:28:35.364Z,1021.21
2017-01-03T01:29:44.052Z,1021.25
2017-01-03T01:30:53.165Z,1021.21
2017-01-03T01:32:02.629Z,1021.19
2017-01-03T01:33:11.700Z,1021.22
2017-01-03T01:34:20.391Z,1021.2
2017-01-03T01:35:29.076Z,1021.19
2017-01-03T01:36:38.167Z,1021.23
2017-01-03T01:37:48.013Z,1021.24
2017-01-03T01:38:56.721Z,1021.25
2017-01-03T01:40:05.430Z,1021.21
2017-01-03T01:41:14.499Z,1021.19
2017-01-03T01:42:23.230Z,1021.2
2017-01-03T01:43:33.012Z,1021.23
2017-01-03T01:44:42.545Z,1021.24
2017-01-03T01:45:51.614Z,1021.23
2017-01-03T01:47:00.689Z,1021.27
2017-01-03T01:48:09.417Z,1021.23
2017-01-03T01:49:18.419Z,1021.28
2017-01-03T01:50:27.883Z,1021.28
2017-01-03T01:51:36.980Z,1021.33
2017-01-03T01:52:46.073Z,1021.36
2017-01-03T01:53:55.138Z,1021.35
2017-01-03T01:55:04.332Z,1021.37
2017-01-03T01:56:13.416Z,1021.44
2017-01-03T01:57:22.516Z,1021.45
2017-01-03T01:58:31.648Z,1021.47
2017-01-03T01:59:41.133Z,1021.49
2017-01-03T02:00:51.335Z,1021.51
2017-01-03T02:02:01.225Z,1021.52
2017-01-03T02:03:10.703Z,1021.5
2017-01-03T02:04:20.203Z,1021.55
2017-01-03T02:05:29.273Z,1021.59
2017-01-03T02:06:39.906Z,1021.6
2017-01-03T02:07:48.997Z,1021.59
2017-01-03T02:08:58.088Z,1021.58
2017-01-03T02:10:07.166Z,1021.58
2017-01-03T02:11:16.663Z,1021.56
2017-01-03T02:12:26.475Z,1021.54
2017-01-03T02:13:35.553Z,1021.57
2017-01-03T02:14:44.648Z,1021.55
2017-01-03T02:15:53.345Z,1021.58
2017-01-03T02:17:02.814Z,1021.56
2017-01-03T02:18:11.843Z,1021.53
2017-01-03T02:19:20.921Z,1021.54
2017-01-03T02:20:30.080Z,1021.52
2017-01-03T02:21:39.172Z,1021.53
2017-01-03T02:22:47.863Z,1021.57
2017-01-03T02:23:56.636Z,1021.53
2017-01-03T02:25:06.118Z,1021.55
2017-01-03T02:26:15.228Z,1021.54
2017-01-03T02:27:24.352Z,1021.55
2017-01-03T02:28:33.444Z,1021.56
2017-01-03T02:29:42.163Z,1021.54
2017-01-03T02:30:51.248Z,1021.57
2017-01-03T02:32:00.726Z,1021.55
2017-01-03T02:33:09.836Z,1021.49
2017-01-03T02:34:19.386Z,1021.47
2017-01-03T02:35:28.462Z,1021.46
2017-01-03T02:36:37.546Z,1021.46
2017-01-03T02:37:46.227Z,1021.45
2017-01-03T02:38:54.917Z,1021.43
2017-01-03T02:40:04.375Z,1021.48
2017-01-03T02:41:13.551Z,1021.46
2017-01-03T02:42:22.628Z,1021.44
2017-01-03T02:43:32.088Z,1021.47
2017-01-03T02:44:41.207Z,1021.47
2017-01-03T02:45:50.282Z,1021.47
2017-01-03T02:46:59.731Z,1021.46
2017-01-03T02:48:08.827Z,1021.44
2017-01-03T02:49:17.542Z,1021.44
2017-01-03T02:50:26.654Z,1021.4
2017-01-03T02:51:35.349Z,1021.42
2017-01-03T02:52:44.825Z,1021.37
2017-01-03T02:53:53.530Z,1021.37
2017-01-03T02:55:02.605Z,1021.37
2017-01-03T02:56:11.313Z,1021.36
2017-01-03T02:57:20.780Z,1021.32
2017-01-03T02:58:29.629Z,1021.29
2017-01-03T02:59:38.709Z,1021.27
2017-01-03T03:00:47.418Z,1021.26
2017-01-03T03:01:56.122Z,1021.19
2017-01-03T03:03:05.217Z,1021.21
2017-01-03T03:04:14.319Z,1021.22
2017-01-03T03:05:23.021Z,1021.18
2017-01-03T03:06:32.135Z,1021.2
2017-01-03T03:07:41.614Z,1021.23
2017-01-03T03:08:50.736Z,1021.23
2017-01-03T03:10:00.579Z,1021.24
2017-01-03T03:11:10.444Z,1021.19
2017-01-03T03:12:19.921Z,1021.25
2017-01-03T03:13:28.629Z,1021.28
2017-01-03T03:14:37.317Z,1021.24
2017-01-03T03:15:46.748Z,1021.27
2017-01-03T03:16:55.864Z,1021.26
2017-01-03T03:18:04.605Z,1021.27
2017-01-03T03:19:13.350Z,1021.22
2017-01-03T03:20:22.442Z,1021.23
2017-01-03T03:21:32.070Z,1021.22
2017-01-03T03:22:41.178Z,1021.21
2017-01-03T03:23:50.649Z,1021.2
2017-01-03T03:25:00.120Z,1021.21
2017-01-03T03:26:09.605Z,1021.23
2017-01-03T03:27:18.835Z,1021.19
2017-01-03T03:28:27.552Z,1021.19
2017-01-03T03:29:36.252Z,1021.21
2017-01-03T03:30:45.335Z,1021.2
2017-01-03T03:31:55.187Z,1021.17
2017-01-03T03:33:04.274Z,1021.19
2017-01-03T03:34:12.993Z,1021.19
2017-01-03T03:35:22.069Z,1021.18
2017-01-03T03:36:30.770Z,1021.18
2017-01-03T03:37:39.516Z,1021.21
2017-01-03T03:38:49.730Z,1021.23
2017-01-03T03:39:58.474Z,1021.23
2017-01-03T03:41:07.155Z,1021.21
2017-01-03T03:42:15.835Z,1021.26
2017-01-03T03:43:25.322Z,1021.26
2017-01-03T03:44:34.531Z,1021.29
2017-01-03T03:45:43.624Z,1021.24
2017-01-03T03:46:52.705Z,1021.26
2017-01-03T03:48:01.846Z,1021.29
2017-01-03T03:49:11.334Z,1021.25
2017-01-03T03:50:20.447Z,1021.19
2017-01-03T03:51:29.465Z,1021.2
2017-01-03T03:52:38.226Z,1021.21
2017-01-03T03:53:46.914Z,1021.23
2017-01-03T03:54:56.389Z,1021.27
2017-01-03T03:56:05.888Z,1021.27
2017-01-03T03:57:14.993Z,1021.26
2017-01-03T03:58:24.147Z,1021.28
2017-01-03T03:59:33.629Z,1021.31
2017-01-03T04:00:43.350Z,1021.25
2017-01-03T04:01:53.052Z,1021.28
2017-01-03T04:03:02.794Z,1021.26
2017-01-03T04:04:12.712Z,1021.27
2017-01-03T04:05:22.316Z,1021.27
2017-01-03T04:06:31.445Z,1021.24
2017-01-03T04:07:40.311Z,1021.22
2017-01-03T04:08:49.407Z,1021.27
2017-01-03T04:09:58.504Z,1021.22
2017-01-03T04:11:07.997Z,1021.21
2017-01-03T04:12:17.121Z,1021.2
2017-01-03T04:13:26.005Z,1021.21
2017-01-03T04:14:34.697Z,1021.19
2017-01-03T04:15:44.953Z,1021.16
2017-01-03T04:16:54.038Z,1021.11
2017-01-03T04:18:03.173Z,1021.11
2017-01-03T04:19:12.834Z,1021.11
2017-01-03T04:20:22.385Z,1021.15
2017-01-03T04:21:31.541Z,1021.17
2017-01-03T04:22:40.253Z,1021.21
2017-01-03T04:23:49.340Z,1021.19
2017-01-03T04:24:59.111Z,1021.15
2017-01-03T04:26:08.215Z,1021.19
2017-01-03T04:27:17.362Z,1021.25
2017-01-03T04:28:26.105Z,1021.22
2017-01-03T04:29:34.829Z,1021.23
2017-01-03T04:30:43.949Z,1021.25
2017-01-03T04:31:52.678Z,1021.28
2017-01-03T04:33:02.593Z,1021.27
2017-01-03T04:34:12.065Z,1021.25
2017-01-03T04:35:20.778Z,1021.27
2017-01-03T04:36:30.187Z,1021.18
2017-01-03T04:37:39.053Z,1021.21
2017-01-03T04:38:47.870Z,1021.18
2017-01-03T04:39:57.025Z,1021.15
2017-01-03T04:41:06.111Z,1021.15
2017-01-03T04:42:14.907Z,1021.17
2017-01-03T04:43:23.626Z,1021.16
2017-01-03T04:44:32.715Z,1021.18
2017-01-03T04:45:41.790Z,1021.21
2017-01-03T04:46:50.524Z,1021.21
2017-01-03T04:47:59.597Z,1021.21
2017-01-03T04:49:08.377Z,1021.23
2017-01-03T04:50:17.076Z,1021.24
2017-01-03T04:51:25.766Z,1021.27
2017-01-03T04:52:34.850Z,1021.27
2017-01-03T04:53:44.090Z,1021.24
2017-01-03T04:54:52.793Z,1021.21
2017-01-03T04:56:02.327Z,1021.17
2017-01-03T04:57:11.409Z,1021.16
2017-01-03T04:58:20.886Z,1021.14
2017-01-03T04:59:30.723Z,1021.12
2017-01-03T05:00:40.194Z,1021.08
2017-01-03T05:01:48.879Z,1021.07
2017-01-03T05:02:58.003Z,1021.08
2017-01-03T05:04:07.093Z,1021.09
2017-01-03T05:05:16.360Z,1021.13
2017-01-03T05:06:25.877Z,1021.14
2017-01-03T05:07:34.612Z,1021.16
2017-01-03T05:08:43.685Z,1021.16
2017-01-03T05:09:52.385Z,1021.15
2017-01-03T05:11:01.260Z,1021.13
2017-01-03T05:12:09.955Z,1021.16
2017-01-03T05:13:19.063Z,1021.13
2017-01-03T05:14:28.151Z,1021.16
2017-01-03T05:15:37.234Z,1021.13
2017-01-03T05:16:46.498Z,1021.12
2017-01-03T05:17:55.656Z,1021.14
2017-01-03T05:19:04.357Z,1021.06
2017-01-03T05:20:13.039Z,1021.04
2017-01-03T05:21:22.107Z,1021.01
2017-01-03T05:22:32.550Z,1021.01
2017-01-03T05:23:41.231Z,1021.04
2017-01-03T05:24:49.936Z,1021.06
2017-01-03T05:25:59.409Z,1021.08
2017-01-03T05:27:08.892Z,1021
2017-01-03T05:28:17.597Z,1020.97
2017-01-03T05:29:26.287Z,1020.98
2017-01-03T05:30:35.396Z,1020.99
2017-01-03T05:31:44.152Z,1020.96
2017-01-03T05:32:52.838Z,1020.96
2017-01-03T05:34:02.073Z,1020.96
2017-01-03T05:35:11.571Z,1021
2017-01-03T05:36:20.671Z,1020.98
2017-01-03T05:37:29.469Z,1021.01
2017-01-03T05:38:38.174Z,1021
2017-01-03T05:39:48.030Z,1021.03
2017-01-03T05:40:57.153Z,1021.01
2017-01-03T05:42:06.722Z,1021.07
2017-01-03T05:43:15.846Z,1021.05
2017-01-03T05:44:25.802Z,1021.05
2017-01-03T05:45:34.924Z,1021.07
2017-01-03T05:46:44.021Z,1021.05
2017-01-03T05:47:52.777Z,1021.04
2017-01-03T05:49:02.634Z,1021.02
2017-01-03T05:50:11.369Z,1021.02
2017-01-03T05:51:20.529Z,1021.01
2017-01-03T05:52:29.357Z,1020.97
2017-01-03T05:53:38.151Z,1020.94
2017-01-03T05:54:47.680Z,1020.97
2017-01-03T05:55:57.552Z,1020.88
2017-01-03T05:57:06.981Z,1020.88
2017-01-03T05:58:15.749Z,1020.9
2017-01-03T05:59:24.430Z,1020.89
2017-01-03T06:00:33.580Z,1020.9
2017-01-03T06:01:43.452Z,1020.88
2017-01-03T06:02:52.560Z,1020.86
2017-01-03T06:04:01.698Z,1020.87
2017-01-03T06:05:11.297Z,1020.85
2017-01-03T06:06:20.707Z,1020.85
2017-01-03T06:07:30.595Z,1020.86
2017-01-03T06:08:40.245Z,1020.84
2017-01-03T06:09:49.668Z,1020.84
2017-01-03T06:10:59.479Z,1020.86
2017-01-03T06:12:08.738Z,1020.84
2017-01-03T06:13:17.845Z,1020.79
2017-01-03T06:14:27.257Z,1020.8
2017-01-03T06:15:36.422Z,1020.79
2017-01-03T06:16:45.531Z,1020.81
2017-01-03T06:17:54.668Z,1020.81
2017-01-03T06:19:04.201Z,1020.85
2017-01-03T06:20:13.192Z,1020.84
2017-01-03T06:21:22.586Z,1020.87
2017-01-03T06:22:31.383Z,1020.79
2017-01-03T06:23:40.957Z,1020.83
2017-01-03T06:24:49.696Z,1020.83
2017-01-03T06:25:59.246Z,1020.78
2017-01-03T06:27:07.956Z,1020.74
2017-01-03T06:28:17.052Z,1020.74
2017-01-03T06:29:26.678Z,1020.76
2017-01-03T06:30:35.503Z,1020.73
2017-01-03T06:31:44.819Z,1020.73
2017-01-03T06:32:53.619Z,1020.73
2017-01-03T06:34:02.339Z,1020.75
2017-01-03T06:35:12.284Z,1020.75
2017-01-03T06:36:21.460Z,1020.76
2017-01-03T06:37:31.141Z,1020.74
2017-01-03T06:38:40.691Z,1020.77
2017-01-03T06:39:49.965Z,1020.73
2017-01-03T06:40:58.680Z,1020.73
2017-01-03T06:42:07.469Z,1020.69
2017-01-03T06:43:16.937Z,1020.66
2017-01-03T06:44:26.876Z,1020.67
2017-01-03T06:45:36.475Z,1020.66
2017-01-03T06:46:45.259Z,1020.67
2017-01-03T06:47:54.503Z,1020.68
2017-01-03T06:49:04.240Z,1020.69
2017-01-03T06:50:13.078Z,1020.71
2017-01-03T06:51:22.613Z,1020.74
2017-01-03T06:52:31.774Z,1020.73
2017-01-03T06:53:41.062Z,1020.76
2017-01-03T06:54:50.261Z,1020.76
2017-01-03T06:55:59.354Z,1020.78
2017-01-03T06:57:08.134Z,1020.75
2017-01-03T06:58:17.303Z,1020.84
2017-01-03T06:59:26.455Z,1020.85
2017-01-03T07:00:35.392Z,1020.82
2017-01-03T07:01:44.581Z,1020.84
2017-01-03T07:02:54.107Z,1020.8
2017-01-03T07:04:03.277Z,1020.78
2017-01-03T07:05:13.205Z,1020.8
2017-01-03T07:06:22.747Z,1020.73
2017-01-03T07:07:31.894Z,1020.71
2017-01-03T07:08:41.469Z,1020.73
2017-01-03T07:09:50.419Z,1020.73
2017-01-03T07:11:00.326Z,1020.78
2017-01-03T07:12:09.970Z,1020.8
2017-01-03T07:13:19.886Z,1020.76
2017-01-03T07:14:30.157Z,1020.74
2017-01-03T07:15:39.680Z,1020.75
2017-01-03T07:16:48.872Z,1020.76
2017-01-03T07:17:58.408Z,1020.77
2017-01-03T07:19:08.166Z,1020.77
2017-01-03T07:20:17.462Z,1020.81
2017-01-03T07:21:29.786Z,1020.78
2017-01-03T07:22:38.751Z,1020.77
2017-01-03T07:23:48.143Z,1020.81
2017-01-03T07:24:56.843Z,1020.83
2017-01-03T07:26:05.988Z,1020.85
2017-01-03T07:27:14.766Z,1020.84
2017-01-03T07:28:24.283Z,1020.84
2017-01-03T07:29:33.526Z,1020.92
2017-01-03T07:30:42.319Z,1020.93
2017-01-03T07:31:51.073Z,1020.92
2017-01-03T07:33:00.233Z,1020.93
2017-01-03T07:34:09.706Z,1021
2017-01-03T07:35:19.201Z,1020.97
2017-01-03T07:36:29.071Z,1021.03
2017-01-03T07:37:38.972Z,1021.02
2017-01-03T07:38:48.477Z,1021.04
2017-01-03T07:39:58.351Z,1021.06
2017-01-03T07:41:07.396Z,1021.1
2017-01-03T07:42:16.870Z,1021.03
2017-01-03T07:43:25.629Z,1021.08
2017-01-03T07:44:34.721Z,1021.07
2017-01-03T07:45:43.405Z,1021.1
2017-01-03T07:46:52.824Z,1021.06
2017-01-03T07:48:02.285Z,1021.09
2017-01-03T07:49:10.969Z,1021.13
2017-01-03T07:50:20.470Z,1021.07
2017-01-03T07:51:30.633Z,1021.09
2017-01-03T07:52:39.857Z,1021.11
2017-01-03T07:53:48.960Z,1021.11
2017-01-03T07:54:58.830Z,1021.09
2017-01-03T07:56:08.316Z,1021.15
2017-01-03T07:57:17.042Z,1021.14
2017-01-03T07:58:25.903Z,1021.13
2017-01-03T07:59:35.044Z,1021.18
2017-01-03T08:00:44.520Z,1021.14
2017-01-03T08:01:54.006Z,1021.26
2017-01-03T08:03:03.514Z,1021.23
2017-01-03T08:04:12.981Z,1021.24
2017-01-03T08:05:22.081Z,1021.22
2017-01-03T08:06:31.160Z,1021.24
2017-01-03T08:07:40.640Z,1021.21
2017-01-03T08:08:49.738Z,1021.23
2017-01-03T08:09:58.780Z,1021.25
2017-01-03T08:11:07.486Z,1021.28
2017-01-03T08:12:17.391Z,1021.21
2017-01-03T08:13:26.855Z,1021.18
2017-01-03T08:14:37.108Z,1021.15
2017-01-03T08:15:46.244Z,1021.14
2017-01-03T08:16:55.316Z,1021.2
2017-01-03T08:18:04.438Z,1021.14
2017-01-03T08:19:13.911Z,1021.2
2017-01-03T08:20:23.799Z,1021.18
2017-01-03T08:21:32.880Z,1021.21
2017-01-03T08:22:41.604Z,1021.2
2017-01-03T08:23:50.291Z,1021.22
2017-01-03T08:24:59.402Z,1021.22
2017-01-03T08:26:09.260Z,1021.28
2017-01-03T08:27:18.361Z,1021.3
2017-01-03T08:28:27.052Z,1021.31
2017-01-03T08:29:36.128Z,1021.35
2017-01-03T08:30:44.813Z,1021.35
2017-01-03T08:31:53.906Z,1021.38
2017-01-03T08:33:02.735Z,1021.39
2017-01-03T08:34:12.253Z,1021.42
2017-01-03T08:35:21.715Z,1021.45
2017-01-03T08:36:31.193Z,1021.44
2017-01-03T08:37:40.655Z,1021.44
2017-01-03T08:38:50.619Z,1021.51
2017-01-03T08:40:00.080Z,1021.5
2017-01-03T08:41:09.171Z,1021.49
2017-01-03T08:42:17.934Z,1021.5
2017-01-03T08:43:27.801Z,1021.49
2017-01-03T08:44:36.489Z,1021.53
2017-01-03T08:45:45.960Z,1021.47
2017-01-03T08:46:55.052Z,1021.53
2017-01-03T08:48:04.157Z,1021.51
2017-01-03T08:49:13.646Z,1021.47
2017-01-03T08:50:23.516Z,1021.5
2017-01-03T08:51:32.995Z,1021.46
2017-01-03T08:52:42.112Z,1021.43
2017-01-03T08:53:51.583Z,1021.47
2017-01-03T08:55:00.270Z,1021.39
2017-01-03T08:56:09.287Z,1021.4
2017-01-03T08:57:18.367Z,1021.42
2017-01-03T08:58:27.062Z,1021.43
2017-01-03T08:59:36.579Z,1021.44
2017-01-03T09:00:45.667Z,1021.45
2017-01-03T09:01:54.360Z,1021.49
2017-01-03T09:03:03.444Z,1021.49
2017-01-03T09:04:12.930Z,1021.45
2017-01-03T09:05:21.614Z,1021.47
2017-01-03T09:06:31.076Z,1021.46
2017-01-03T09:07:40.110Z,1021.43
2017-01-03T09:08:49.184Z,1021.49
2017-01-03T09:09:58.658Z,1021.45
2017-01-03T09:11:07.735Z,1021.47
2017-01-03T09:12:17.204Z,1021.49
2017-01-03T09:13:27.434Z,1021.5
2017-01-03T09:14:36.115Z,1021.51
2017-01-03T09:15:44.807Z,1021.49
2017-01-03T09:16:53.486Z,1021.5
2017-01-03T09:18:02.573Z,1021.55
2017-01-03T09:19:11.615Z,1021.58
2017-01-03T09:20:21.335Z,1021.6
2017-01-03T09:21:30.814Z,1021.65
2017-01-03T09:22:39.910Z,1021.67
2017-01-03T09:23:48.627Z,1021.63
2017-01-03T09:24:57.439Z,1021.64
2017-01-03T09:26:06.560Z,1021.66
2017-01-03T09:27:15.651Z,1021.68
2017-01-03T09:28:24.351Z,1021.68
2017-01-03T09:29:33.428Z,1021.74
2017-01-03T09:30:42.525Z,1021.79
2017-01-03T09:31:51.604Z,1021.83
2017-01-03T09:33:01.492Z,1021.87
2017-01-03T09:34:10.996Z,1021.9
2017-01-03T09:35:19.687Z,1021.84
2017-01-03T09:36:29.119Z,1021.83
2017-01-03T09:37:37.827Z,1021.74
2017-01-03T09:38:46.900Z,1021.74
2017-01-03T09:39:57.235Z,1021.68
2017-01-03T09:41:05.939Z,1021.61
2017-01-03T09:42:15.164Z,1021.62
2017-01-03T09:43:24.241Z,1021.61
2017-01-03T09:44:33.320Z,1021.61
2017-01-03T09:45:42.423Z,1021.65
2017-01-03T09:46:51.113Z,1021.67
2017-01-03T09:48:00.747Z,1021.69
2017-01-03T09:49:09.818Z,1021.63
2017-01-03T09:50:19.310Z,1021.69
2017-01-03T09:51:27.987Z,1021.67
2017-01-03T09:52:37.844Z,1021.62
2017-01-03T09:53:47.307Z,1021.52
2017-01-03T09:54:56.774Z,1021.47
2017-01-03T09:56:05.506Z,1021.49
2017-01-03T09:57:14.582Z,1021.5
2017-01-03T09:58:23.279Z,1021.47
2017-01-03T09:59:32.516Z,1021.46
2017-01-03T10:00:42.380Z,1021.56
2017-01-03T10:01:51.066Z,1021.57
2017-01-03T10:03:00.142Z,1021.47
2017-01-03T10:04:08.834Z,1021.45
2017-01-03T10:05:18.233Z,1021.46
2017-01-03T10:06:26.930Z,1021.47
2017-01-03T10:07:37.207Z,1021.42
2017-01-03T10:08:45.909Z,1021.4
2017-01-03T10:09:54.996Z,1021.45
2017-01-03T10:11:04.078Z,1021.41
2017-01-03T10:12:14.365Z,1021.4
2017-01-03T10:13:23.455Z,1021.37
2017-01-03T10:14:32.924Z,1021.36
2017-01-03T10:15:42.011Z,1021.38
2017-01-03T10:16:51.189Z,1021.41
2017-01-03T10:17:59.884Z,1021.44
2017-01-03T10:19:08.968Z,1021.47
2017-01-03T10:20:18.056Z,1021.47
2017-01-03T10:21:27.525Z,1021.48
2017-01-03T10:22:36.216Z,1021.46
2017-01-03T10:23:45.373Z,1021.44
2017-01-03T10:24:54.846Z,1021.33
2017-01-03T10:26:03.555Z,1021.41
2017-01-03T10:27:12.252Z,1021.46
2017-01-03T10:28:21.336Z,1021.4
2017-01-03T10:29:30.018Z,1021.33
2017-01-03T10:30:39.506Z,1021.36
2017-01-03T10:31:48.612Z,1021.36
2017-01-03T10:32:57.308Z,1021.43
2017-01-03T10:34:06.541Z,1021.4
2017-01-03T10:35:15.221Z,1021.43
2017-01-03T10:36:24.310Z,1021.36
2017-01-03T10:37:34.551Z,1021.4
2017-01-03T10:38:43.629Z,1021.34
2017-01-03T10:39:53.059Z,1021.3
2017-01-03T10:41:02.529Z,1021.28
2017-01-03T10:42:11.213Z,1021.22
2017-01-03T10:43:20.701Z,1021.18
2017-01-03T10:44:29.790Z,1021.15
2017-01-03T10:45:39.624Z,1021.12
2017-01-03T10:46:48.734Z,1021.14
2017-01-03T10:47:58.212Z,1021.11
2017-01-03T10:49:07.294Z,1021.06
2017-01-03T10:50:15.986Z,1021.05
2017-01-03T10:51:25.230Z,1021.03
2017-01-03T10:52:34.333Z,1021.03
2017-01-03T10:53:43.852Z,1020.99
2017-01-03T10:54:52.967Z,1020.97
2017-01-03T10:56:02.484Z,1020.97
2017-01-03T10:57:11.755Z,1020.84
2017-01-03T10:58:20.463Z,1020.81
2017-01-03T10:59:29.546Z,1020.86
2017-01-03T11:00:38.250Z,1020.82
2017-01-03T11:01:47.723Z,1020.81
2017-01-03T11:02:56.752Z,1020.82
2017-01-03T11:04:05.815Z,1020.81
2017-01-03T11:05:15.272Z,1020.86
2017-01-03T11:06:23.954Z,1020.85
2017-01-03T11:07:32.674Z,1020.82
2017-01-03T11:08:41.658Z,1020.81
2017-01-03T11:09:50.356Z,1020.81
2017-01-03T11:10:59.037Z,1020.79
2017-01-03T11:12:08.133Z,1020.79
2017-01-03T11:13:17.220Z,1020.77
2017-01-03T11:14:26.450Z,1020.76
2017-01-03T11:15:35.546Z,1020.7
2017-01-03T11:16:45.035Z,1020.73
2017-01-03T11:17:53.727Z,1020.74
2017-01-03T11:19:02.810Z,1020.77
2017-01-03T11:20:12.436Z,1020.79
2017-01-03T11:21:21.511Z,1020.73
2017-01-03T11:22:30.219Z,1020.69
2017-01-03T11:23:39.296Z,1020.69
2017-01-03T11:24:48.799Z,1020.67
2017-01-03T11:25:58.580Z,1020.66
2017-01-03T11:27:08.043Z,1020.63
2017-01-03T11:28:17.508Z,1020.64
2017-01-03T11:29:26.190Z,1020.57
2017-01-03T11:30:35.308Z,1020.54
2017-01-03T11:31:44.802Z,1020.48
2017-01-03T11:32:54.273Z,1020.5
2017-01-03T11:34:02.959Z,1020.42
2017-01-03T11:35:12.067Z,1020.42
2017-01-03T11:36:21.159Z,1020.44
2017-01-03T11:37:30.732Z,1020.39
2017-01-03T11:38:39.798Z,1020.39
2017-01-03T11:39:48.912Z,1020.41
2017-01-03T11:40:58.020Z,1020.37
2017-01-03T11:42:07.509Z,1020.31
2017-01-03T11:43:16.305Z,1020.27
2017-01-03T11:44:25.771Z,1020.28
2017-01-03T11:45:35.631Z,1020.2
2017-01-03T11:46:45.137Z,1020.19
2017-01-03T11:47:53.886Z,1020.23
2017-01-03T11:49:03.191Z,1020.25
2017-01-03T11:50:12.361Z,1020.24
2017-01-03T11:51:22.274Z,1020.26
2017-01-03T11:52:31.383Z,1020.24
2017-01-03T11:53:40.479Z,1020.19
2017-01-03T11:54:49.936Z,1020.24
2017-01-03T11:55:59.025Z,1020.16
2017-01-03T11:57:08.125Z,1020.18
2017-01-03T11:58:16.819Z,1020.14
2017-01-03T11:59:26.304Z,1020.19
2017-01-03T12:00:35.384Z,1020.05
2017-01-03T12:01:44.884Z,1020.14
2017-01-03T12:02:54.768Z,1020.03
2017-01-03T12:04:03.889Z,1020.09
2017-01-03T12:05:12.978Z,1020.04
2017-01-03T12:06:21.675Z,1020
2017-01-03T12:07:30.373Z,1019.94
2017-01-03T12:08:39.452Z,1020
2017-01-03T12:09:48.141Z,1019.97
2017-01-03T12:10:57.229Z,1019.94
2017-01-03T12:12:06.640Z,1019.89
2017-01-03T12:13:15.331Z,1019.9
2017-01-03T12:14:24.811Z,1019.88
2017-01-03T12:15:33.915Z,1019.91
2017-01-03T12:16:43.011Z,1019.93
2017-01-03T12:17:52.496Z,1019.92
2017-01-03T12:19:01.986Z,1019.97
2017-01-03T12:20:11.850Z,1019.96
2017-01-03T12:21:20.935Z,1019.9
2017-01-03T12:22:30.023Z,1019.91
2017-01-03T12:23:38.819Z,1019.9
2017-01-03T12:24:48.686Z,1019.94
2017-01-03T12:25:58.162Z,1019.93
2017-01-03T12:27:06.854Z,1019.91
2017-01-03T12:28:15.970Z,1019.88
2017-01-03T12:29:25.428Z,1019.88
2017-01-03T12:30:34.500Z,1019.88
2017-01-03T12:31:43.573Z,1019.81
2017-01-03T12:32:52.650Z,1019.84
2017-01-03T12:34:01.350Z,1019.87
2017-01-03T12:35:10.531Z,1019.88
2017-01-03T12:36:20.044Z,1019.83
2017-01-03T12:37:28.758Z,1019.74
2017-01-03T12:38:37.834Z,1019.79
2017-01-03T12:39:46.963Z,1019.74
2017-01-03T12:40:55.870Z,1019.8
2017-01-03T12:42:04.950Z,1019.72
2017-01-03T12:43:13.672Z,1019.75
2017-01-03T12:44:23.664Z,1019.78
2017-01-03T12:45:32.352Z,1019.73
2017-01-03T12:46:41.191Z,1019.71
2017-01-03T12:47:50.303Z,1019.86
2017-01-03T12:48:59.016Z,1019.83
2017-01-03T12:50:08.127Z,1019.8
2017-01-03T12:51:17.341Z,1019.86
2017-01-03T12:52:27.348Z,1019.77
2017-01-03T12:53:36.809Z,1019.78
2017-01-03T12:54:45.895Z,1019.72
2017-01-03T12:55:54.612Z,1019.65
2017-01-03T12:57:03.731Z,1019.62
2017-01-03T12:58:12.914Z,1019.67
2017-01-03T12:59:21.631Z,1019.62
2017-01-03T13:00:30.731Z,1019.68
2017-01-03T13:01:40.313Z,1019.62
2017-01-03T13:02:49.034Z,1019.6
2017-01-03T13:03:58.510Z,1019.53
2017-01-03T13:05:07.222Z,1019.46
2017-01-03T13:06:16.689Z,1019.41
2017-01-03T13:07:25.376Z,1019.4
2017-01-03T13:08:34.059Z,1019.4
2017-01-03T13:09:42.758Z,1019.36
2017-01-03T13:10:51.865Z,1019.28
2017-01-03T13:12:00.551Z,1019.26
2017-01-03T13:13:09.637Z,1019.27
2017-01-03T13:14:18.325Z,1019.18
2017-01-03T13:15:27.535Z,1019.13
2017-01-03T13:16:36.633Z,1019.17
2017-01-03T13:17:45.725Z,1019.17
2017-01-03T13:18:55.215Z,1019.1
2017-01-03T13:20:04.696Z,1019.17
2017-01-03T13:21:14.864Z,1019.12
2017-01-03T13:22:23.947Z,1019.18
2017-01-03T13:23:33.028Z,1019.13
2017-01-03T13:24:42.699Z,1019.04
2017-01-03T13:25:52.179Z,1019.03
2017-01-03T13:27:01.445Z,1019.04
2017-01-03T13:28:10.949Z,1019.08
2017-01-03T13:29:20.393Z,1019.07
2017-01-03T13:30:29.104Z,1019.08
2017-01-03T13:31:38.197Z,1019.09
2017-01-03T13:32:47.336Z,1019.04
2017-01-03T13:33:56.800Z,1019.13
2017-01-03T13:35:06.047Z,1019.13
2017-01-03T13:36:15.117Z,1019.15
2017-01-03T13:37:24.204Z,1019.04
2017-01-03T13:38:33.251Z,1019.04
2017-01-03T13:39:42.332Z,1019.04
2017-01-03T13:40:51.438Z,1019.08
2017-01-03T13:42:00.905Z,1019.03
2017-01-03T13:43:10.264Z,1019.05
2017-01-03T13:44:19.046Z,1019.06
2017-01-03T13:45:28.989Z,1018.98
2017-01-03T13:46:37.705Z,1019.02
2017-01-03T13:47:46.777Z,1019.06
2017-01-03T13:48:55.876Z,1019.07
2017-01-03T13:50:04.721Z,1019.11
2017-01-03T13:51:14.219Z,1019.12
2017-01-03T13:52:23.319Z,1019.16
2017-01-03T13:53:32.399Z,1019.12
2017-01-03T13:54:41.084Z,1019.14
2017-01-03T13:55:50.574Z,1019.16
2017-01-03T13:56:59.265Z,1019.21
2017-01-03T13:58:08.356Z,1019.24
2017-01-03T13:59:17.060Z,1019.21
2017-01-03T14:00:26.943Z,1019.3